Relevés horaires Schaffen (Belgique)


Relevés horaires à Schaffen - Mercredi 18 Mars 2020
Heure UTC1 Température [°C] Vent [km/h] Hum. [%] Pres.4 [hPa] Visi. [Km] Nébu. [octa] Préc.5 [mm] Cond.
2m. Res. Ros. Dir.2 Vit. Moy. Raf.3
23:00 8.1 8.1 4.2 NNO 1.9 -- 3.7 76 1025.9(-0.1/3h) 20 -- -- --
22:00 10.8 10.8 3.4 NNO 3.7 -- 3.7 60 1025.9(0.1/3h) 20 -- -- --
21:00 12.3 12.3 2.5 NNO 1.9 -- 5.6 51 1025.9(0.2/3h) 20 -- -- --
20:00 11.4 11.4 3.1 NNO 1.9 -- 3.7 57 1026(0.5/3h) 20 -- -- --
19:00 13.0 13.0 1.2 NNO 1.9 -- 5.6 44 1025.9(0.3/3h) 20 -- -- --
18:00 14.0 14.0 1.1 O 3.7 -- 20.4 41 1025.5(-0.4/3h) 20 -- -- --
17:00 15.3 15.3 1.7 O 5.6 -- 13.0 40 1025.4(-1.0/3h) 20 -- -- --
16:00 16.4 16.4 2.0 O 7.4 -- 13.0 38 1025.5(-1.4/3h) 20 -- -- --
15:00 16.5 16.5 3.1 O 7.4 -- 20.4 41 1026(-1.5/3h) 20 -- -- --
14:00 16.6 16.6 2.7 SO 5.6 -- 14.8 39 1026.4(-1.5/3h) 20 -- -- --
13:00 16.2 16.2 1.1 OSO 7.4 -- 14.8 36 1027(-1.3/3h) 20 -- -- --
12:00 15.4 15.2 1.6 SO 9.3 -- 14.8 39 1027.5(-0.9/3h) 20 -- -- --
11:00 15.0 15 2.4 SO 7.4 -- 14.8 43 1028(-0.5/3h) 20 -- -- --
10:00 13.7 13.7 3.6 SO 5.6 -- 13.0 50 1028.4(0.0/3h) 20 -- -- --
09:00 12.1 12 4.6 SO 5.6 -- 11.1 60 1028.5(0.1/3h) 14 -- -- --
08:00 9.8 9.4 6.5 SO 5.6 -- 9.3 80 1028.5(0.1/3h) 7 -- -- --
07:00 7.4 7.4 5.9 S 3.7 -- 7.4 90 1028.5(0.0/3h) 5 -- -- --
06:00 6.3 6.3 5.1 SSO 3.7 -- 7.4 92 1028.5(0.0/3h) 6 -- -- --
05:00 5.7 5.7 4.0 SSO 3.7 -- 5.6 89 1028.5(0.0/3h) 10 -- -- --
04:00 6.2 6.2 3.9 SSO 3.7 -- 5.6 85 1028.5(-0.3/3h) 15 -- -- --
03:00 6.3 6.3 3.4 NNO 1.9 -- 7.4 82 1028.5(-0.6/3h) 19 -- -- --
02:00 7.3 7.3 3.3 NNO 1.9 -- 7.4 76 1028.5(-1.2/3h) 20 -- -- --
01:00 7.1 7.1 2.9 S 3.7 -- 5.6 75 1028.7(-1.5/3h) 20 -- -- --
00:00 7.3 7.3 1.7 NNO 1.9 -- 5.6 68 1029.2(-1.2/3h) 20 -- -- --

1 Coordinated Universal Time. Actuellement il est 04:00 locale et 03:00 UTC.

2 Le vent souffle depuis la direction indiquée vers la direction oposée.

3 Les rafales max. sont disponible 40 min après l'heure du relevé.

4 Pour les stations d'altitude (plus de 600m) le géopotentiel du niveau le plus proche de la pression obligatoire est indiqué.

5 Les stations disposant d'un diffuseur peuvent indiquer "trace". Cela signifie que des précipitations ont touchés le sol mais que la quantité est inférieure à 0.1 mm.

Récapitulatif de la journée
Température [°C] Vent [km/h] Ensoleillement4 [h] Precipitations totale5 [mm] Pression [Hpa]
Min1 Max.2 Moy.3 Max. Min Max.
5.5 17.0 0 20.4 0 h 0 min 0 1025.4 1029.2

1 Température minimale relevée entre 18:00 UTC la veille et 18:00 UTC le jour donné.

2 Température maximale relevée entre 06:00 UTC le jour donné et 06:00 UTC le lendemain.

3 Vent moyen de la journée basé sur les relevés horaires.

4 Ensoleillement en heures relevé entre 06:00 UTC la veille et 06:00 UTC le jour donné.

5 Précipitations totales tombées entre 06:00 UTC la jour donné et 06:00 UTC le lendemain.

Graphiques horaires